sensor_id;sensor_type;location;lat;lon;timestamp;P1;durP1;ratioP1;P2;durP2;ratioP2
70613;SDS011;58176;51.130;4.434;2023-05-20T00:01:36;10.05;;;5.22;;
70613;SDS011;58176;51.130;4.434;2023-05-20T00:04:02;6.95;;;5.60;;
70613;SDS011;58176;51.130;4.434;2023-05-20T00:06:27;9.65;;;5.88;;
70613;SDS011;58176;51.130;4.434;2023-05-20T00:08:53;9.05;;;5.78;;
70613;SDS011;58176;51.130;4.434;2023-05-20T00:11:19;14.52;;;5.97;;
70613;SDS011;58176;51.130;4.434;2023-05-20T00:13:46;7.90;;;5.55;;
70613;SDS011;58176;51.130;4.434;2023-05-20T00:16:11;9.63;;;5.70;;
70613;SDS011;58176;51.130;4.434;2023-05-20T00:18:37;8.38;;;5.65;;
70613;SDS011;58176;51.130;4.434;2023-05-20T00:21:02;10.57;;;5.80;;
70613;SDS011;58176;51.130;4.434;2023-05-20T00:23:28;14.05;;;6.43;;
70613;SDS011;58176;51.130;4.434;2023-05-20T00:25:54;5.72;;;4.80;;
70613;SDS011;58176;51.130;4.434;2023-05-20T00:28:19;6.97;;;5.10;;
70613;SDS011;58176;51.130;4.434;2023-05-20T00:30:47;8.32;;;4.90;;
70613;SDS011;58176;51.130;4.434;2023-05-20T00:33:12;9.40;;;4.95;;
70613;SDS011;58176;51.130;4.434;2023-05-20T00:35:38;5.10;;;4.60;;
70613;SDS011;58176;51.130;4.434;2023-05-20T00:38:03;7.63;;;5.25;;
70613;SDS011;58176;51.130;4.434;2023-05-20T00:40:30;5.38;;;4.88;;
70613;SDS011;58176;51.130;4.434;2023-05-20T00:42:55;5.65;;;4.55;;
70613;SDS011;58176;51.130;4.434;2023-05-20T00:45:21;10.48;;;4.28;;
70613;SDS011;58176;51.130;4.434;2023-05-20T00:47:47;6.82;;;4.38;;
70613;SDS011;58176;51.130;4.434;2023-05-20T00:50:13;7.57;;;4.35;;
70613;SDS011;58176;51.130;4.434;2023-05-20T00:52:38;8.32;;;4.40;;
70613;SDS011;58176;51.130;4.434;2023-05-20T00:55:08;7.15;;;4.40;;
70613;SDS011;58176;51.130;4.434;2023-05-20T00:57:33;8.50;;;4.45;;
70613;SDS011;58176;51.130;4.434;2023-05-20T00:59:59;8.82;;;4.57;;
70613;SDS011;58176;51.130;4.434;2023-05-20T01:02:25;9.10;;;3.55;;
70613;SDS011;58176;51.130;4.434;2023-05-20T01:04:51;6.32;;;4.00;;
70613;SDS011;58176;51.130;4.434;2023-05-20T01:07:17;6.93;;;3.75;;
70613;SDS011;58176;51.130;4.434;2023-05-20T01:09:43;6.82;;;3.88;;
70613;SDS011;58176;51.130;4.434;2023-05-20T01:12:25;6.78;;;3.88;;
70613;SDS011;58176;51.130;4.434;2023-05-20T01:14:57;6.70;;;3.40;;
70613;SDS011;58176;51.130;4.434;2023-05-20T01:17:26;6.00;;;4.43;;
70613;SDS011;58176;51.130;4.434;2023-05-20T01:19:57;4.95;;;3.75;;
70613;SDS011;58176;51.130;4.434;2023-05-20T01:22:30;6.65;;;3.50;;
70613;SDS011;58176;51.130;4.434;2023-05-20T01:24:56;4.60;;;3.65;;
70613;SDS011;58176;51.130;4.434;2023-05-20T01:27:22;6.80;;;3.60;;
70613;SDS011;58176;51.130;4.434;2023-05-20T01:29:48;7.32;;;3.80;;
70613;SDS011;58176;51.130;4.434;2023-05-20T01:34:49;8.40;;;4.35;;
70613;SDS011;58176;51.130;4.434;2023-05-20T01:37:16;4.25;;;3.70;;
70613;SDS011;58176;51.130;4.434;2023-05-20T01:39:43;4.25;;;3.70;;
70613;SDS011;58176;51.130;4.434;2023-05-20T01:42:10;6.50;;;3.70;;
70613;SDS011;58176;51.130;4.434;2023-05-20T01:44:38;9.85;;;3.88;;
70613;SDS011;58176;51.130;4.434;2023-05-20T01:47:04;5.47;;;3.92;;
70613;SDS011;58176;51.130;4.434;2023-05-20T01:49:29;7.03;;;3.67;;
70613;SDS011;58176;51.130;4.434;2023-05-20T01:51:55;8.70;;;3.83;;
70613;SDS011;58176;51.130;4.434;2023-05-20T01:54:21;6.00;;;3.92;;
70613;SDS011;58176;51.130;4.434;2023-05-20T01:56:47;9.38;;;4.32;;
70613;SDS011;58176;51.130;4.434;2023-05-20T01:59:13;6.07;;;3.35;;
70613;SDS011;58176;51.130;4.434;2023-05-20T02:01:39;4.35;;;3.95;;
70613;SDS011;58176;51.130;4.434;2023-05-20T02:04:04;9.02;;;4.03;;
70613;SDS011;58176;51.130;4.434;2023-05-20T02:06:30;5.10;;;3.92;;
70613;SDS011;58176;51.130;4.434;2023-05-20T02:08:56;9.13;;;3.58;;
70613;SDS011;58176;51.130;4.434;2023-05-20T02:11:21;4.90;;;3.90;;
70613;SDS011;58176;51.130;4.434;2023-05-20T02:13:48;6.05;;;3.80;;
70613;SDS011;58176;51.130;4.434;2023-05-20T02:16:14;3.90;;;3.60;;
70613;SDS011;58176;51.130;4.434;2023-05-20T02:18:40;5.50;;;3.65;;
70613;SDS011;58176;51.130;4.434;2023-05-20T02:21:06;4.88;;;3.83;;
70613;SDS011;58176;51.130;4.434;2023-05-20T02:23:32;14.10;;;4.35;;
70613;SDS011;58176;51.130;4.434;2023-05-20T02:25:58;5.13;;;3.60;;
70613;SDS011;58176;51.130;4.434;2023-05-20T02:28:24;5.70;;;3.95;;
70613;SDS011;58176;51.130;4.434;2023-05-20T02:30:50;5.68;;;4.18;;
70613;SDS011;58176;51.130;4.434;2023-05-20T02:33:16;5.63;;;4.63;;
70613;SDS011;58176;51.130;4.434;2023-05-20T02:35:42;9.93;;;4.43;;
70613;SDS011;58176;51.130;4.434;2023-05-20T02:38:09;10.63;;;4.00;;
70613;SDS011;58176;51.130;4.434;2023-05-20T02:40:35;6.25;;;4.15;;
70613;SDS011;58176;51.130;4.434;2023-05-20T02:43:01;8.25;;;4.10;;
70613;SDS011;58176;51.130;4.434;2023-05-20T02:45:27;4.65;;;4.20;;
70613;SDS011;58176;51.130;4.434;2023-05-20T02:47:53;12.32;;;4.13;;
70613;SDS011;58176;51.130;4.434;2023-05-20T02:50:18;5.68;;;4.38;;
70613;SDS011;58176;51.130;4.434;2023-05-20T02:52:44;8.80;;;4.47;;
70613;SDS011;58176;51.130;4.434;2023-05-20T02:55:10;5.35;;;4.00;;
70613;SDS011;58176;51.130;4.434;2023-05-20T02:57:36;8.63;;;4.55;;
70613;SDS011;58176;51.130;4.434;2023-05-20T03:00:03;13.10;;;4.93;;
70613;SDS011;58176;51.130;4.434;2023-05-20T03:02:34;8.35;;;5.28;;
70613;SDS011;58176;51.130;4.434;2023-05-20T03:05:01;4.22;;;3.83;;
70613;SDS011;58176;51.130;4.434;2023-05-20T03:07:29;9.00;;;4.40;;
70613;SDS011;58176;51.130;4.434;2023-05-20T03:09:55;5.95;;;4.43;;
70613;SDS011;58176;51.130;4.434;2023-05-20T03:12:23;6.18;;;4.50;;
70613;SDS011;58176;51.130;4.434;2023-05-20T03:14:50;6.10;;;4.50;;
70613;SDS011;58176;51.130;4.434;2023-05-20T03:17:19;6.47;;;4.53;;
70613;SDS011;58176;51.130;4.434;2023-05-20T03:19:45;15.50;;;5.00;;
70613;SDS011;58176;51.130;4.434;2023-05-20T03:22:11;7.97;;;5.03;;
70613;SDS011;58176;51.130;4.434;2023-05-20T03:24:37;4.97;;;4.38;;
70613;SDS011;58176;51.130;4.434;2023-05-20T03:27:03;9.82;;;4.90;;
70613;SDS011;58176;51.130;4.434;2023-05-20T03:29:28;4.63;;;4.22;;
70613;SDS011;58176;51.130;4.434;2023-05-20T03:31:55;8.32;;;4.53;;
70613;SDS011;58176;51.130;4.434;2023-05-20T03:34:20;7.40;;;4.63;;
70613;SDS011;58176;51.130;4.434;2023-05-20T03:36:46;8.15;;;4.63;;
70613;SDS011;58176;51.130;4.434;2023-05-20T03:39:12;6.90;;;4.60;;
70613;SDS011;58176;51.130;4.434;2023-05-20T03:41:37;5.47;;;4.45;;
70613;SDS011;58176;51.130;4.434;2023-05-20T03:44:03;7.55;;;5.03;;
70613;SDS011;58176;51.130;4.434;2023-05-20T03:46:29;8.20;;;4.70;;
70613;SDS011;58176;51.130;4.434;2023-05-20T03:48:56;10.02;;;4.57;;
70613;SDS011;58176;51.130;4.434;2023-05-20T03:51:22;7.75;;;5.10;;
70613;SDS011;58176;51.130;4.434;2023-05-20T03:53:47;8.32;;;4.68;;
70613;SDS011;58176;51.130;4.434;2023-05-20T03:56:13;7.70;;;4.95;;
70613;SDS011;58176;51.130;4.434;2023-05-20T03:58:38;7.38;;;4.70;;
70613;SDS011;58176;51.130;4.434;2023-05-20T04:01:05;8.52;;;4.82;;
70613;SDS011;58176;51.130;4.434;2023-05-20T04:03:30;4.97;;;4.57;;
70613;SDS011;58176;51.130;4.434;2023-05-20T04:05:56;7.95;;;4.65;;
70613;SDS011;58176;51.130;4.434;2023-05-20T04:08:22;7.35;;;4.70;;
70613;SDS011;58176;51.130;4.434;2023-05-20T04:10:50;4.97;;;4.57;;
70613;SDS011;58176;51.130;4.434;2023-05-20T04:13:19;8.35;;;4.70;;
70613;SDS011;58176;51.130;4.434;2023-05-20T04:15:46;9.55;;;5.03;;
70613;SDS011;58176;51.130;4.434;2023-05-20T04:18:11;9.95;;;4.97;;
70613;SDS011;58176;51.130;4.434;2023-05-20T04:20:37;6.53;;;4.55;;
70613;SDS011;58176;51.130;4.434;2023-05-20T04:23:05;7.20;;;5.05;;
70613;SDS011;58176;51.130;4.434;2023-05-20T04:25:31;9.85;;;4.93;;
70613;SDS011;58176;51.130;4.434;2023-05-20T04:27:58;5.50;;;4.95;;
70613;SDS011;58176;51.130;4.434;2023-05-20T04:30:24;9.45;;;4.80;;
70613;SDS011;58176;51.130;4.434;2023-05-20T04:32:50;8.40;;;5.50;;
70613;SDS011;58176;51.130;4.434;2023-05-20T04:35:16;5.35;;;4.90;;
70613;SDS011;58176;51.130;4.434;2023-05-20T04:37:41;5.95;;;4.70;;
70613;SDS011;58176;51.130;4.434;2023-05-20T04:40:11;7.32;;;4.90;;
70613;SDS011;58176;51.130;4.434;2023-05-20T04:42:38;11.30;;;5.47;;
70613;SDS011;58176;51.130;4.434;2023-05-20T04:45:04;9.25;;;5.30;;
70613;SDS011;58176;51.130;4.434;2023-05-20T04:47:32;8.45;;;5.40;;
70613;SDS011;58176;51.130;4.434;2023-05-20T04:50:02;6.25;;;5.10;;
70613;SDS011;58176;51.130;4.434;2023-05-20T04:52:40;5.53;;;4.55;;
70613;SDS011;58176;51.130;4.434;2023-05-20T04:55:07;10.60;;;4.97;;
70613;SDS011;58176;51.130;4.434;2023-05-20T04:57:34;12.13;;;4.82;;
70613;SDS011;58176;51.130;4.434;2023-05-20T05:00:00;7.53;;;4.60;;
70613;SDS011;58176;51.130;4.434;2023-05-20T05:02:26;5.63;;;5.13;;
70613;SDS011;58176;51.130;4.434;2023-05-20T05:04:52;5.95;;;5.07;;
70613;SDS011;58176;51.130;4.434;2023-05-20T05:07:18;5.45;;;4.80;;
70613;SDS011;58176;51.130;4.434;2023-05-20T05:09:43;7.22;;;5.25;;
70613;SDS011;58176;51.130;4.434;2023-05-20T05:12:09;9.60;;;5.55;;
70613;SDS011;58176;51.130;4.434;2023-05-20T05:14:34;7.38;;;5.10;;
70613;SDS011;58176;51.130;4.434;2023-05-20T05:17:00;6.63;;;5.35;;
70613;SDS011;58176;51.130;4.434;2023-05-20T05:19:26;7.75;;;5.20;;
70613;SDS011;58176;51.130;4.434;2023-05-20T05:21:51;9.18;;;4.75;;
70613;SDS011;58176;51.130;4.434;2023-05-20T05:24:17;8.15;;;5.20;;
70613;SDS011;58176;51.130;4.434;2023-05-20T05:26:42;8.80;;;4.72;;
70613;SDS011;58176;51.130;4.434;2023-05-20T05:29:08;8.10;;;4.70;;
70613;SDS011;58176;51.130;4.434;2023-05-20T05:31:34;7.53;;;4.68;;
70613;SDS011;58176;51.130;4.434;2023-05-20T05:33:59;6.72;;;4.60;;
70613;SDS011;58176;51.130;4.434;2023-05-20T05:36:25;7.13;;;4.75;;
70613;SDS011;58176;51.130;4.434;2023-05-20T05:38:50;9.35;;;5.07;;
70613;SDS011;58176;51.130;4.434;2023-05-20T05:41:16;4.85;;;4.45;;
70613;SDS011;58176;51.130;4.434;2023-05-20T05:43:42;9.88;;;4.68;;
70613;SDS011;58176;51.130;4.434;2023-05-20T05:46:07;5.53;;;4.57;;
70613;SDS011;58176;51.130;4.434;2023-05-20T05:48:34;7.40;;;4.78;;
70613;SDS011;58176;51.130;4.434;2023-05-20T05:51:01;7.63;;;4.75;;
70613;SDS011;58176;51.130;4.434;2023-05-20T05:53:26;4.57;;;4.20;;
70613;SDS011;58176;51.130;4.434;2023-05-20T05:55:52;7.47;;;4.65;;
70613;SDS011;58176;51.130;4.434;2023-05-20T05:58:18;5.55;;;4.50;;
70613;SDS011;58176;51.130;4.434;2023-05-20T06:00:43;8.43;;;4.75;;
70613;SDS011;58176;51.130;4.434;2023-05-20T06:03:09;5.90;;;4.78;;
70613;SDS011;58176;51.130;4.434;2023-05-20T06:05:35;6.55;;;4.43;;
70613;SDS011;58176;51.130;4.434;2023-05-20T06:08:00;4.78;;;4.28;;
70613;SDS011;58176;51.130;4.434;2023-05-20T06:10:26;4.90;;;4.50;;
70613;SDS011;58176;51.130;4.434;2023-05-20T06:12:52;5.53;;;5.00;;
70613;SDS011;58176;51.130;4.434;2023-05-20T06:15:17;7.50;;;5.38;;
70613;SDS011;58176;51.130;4.434;2023-05-20T06:17:43;6.95;;;4.68;;
70613;SDS011;58176;51.130;4.434;2023-05-20T06:20:08;7.88;;;4.75;;
70613;SDS011;58176;51.130;4.434;2023-05-20T06:22:34;4.95;;;4.45;;
70613;SDS011;58176;51.130;4.434;2023-05-20T06:25:00;11.75;;;4.30;;
70613;SDS011;58176;51.130;4.434;2023-05-20T06:27:26;5.03;;;4.65;;
70613;SDS011;58176;51.130;4.434;2023-05-20T06:29:52;6.10;;;4.75;;
70613;SDS011;58176;51.130;4.434;2023-05-20T06:32:18;6.57;;;4.57;;
70613;SDS011;58176;51.130;4.434;2023-05-20T06:34:43;4.32;;;3.92;;
70613;SDS011;58176;51.130;4.434;2023-05-20T06:37:09;9.38;;;4.47;;
70613;SDS011;58176;51.130;4.434;2023-05-20T06:39:35;5.10;;;4.30;;
70613;SDS011;58176;51.130;4.434;2023-05-20T06:42:02;8.63;;;4.70;;
70613;SDS011;58176;51.130;4.434;2023-05-20T06:44:27;5.20;;;4.25;;
70613;SDS011;58176;51.130;4.434;2023-05-20T06:46:53;6.10;;;4.30;;
70613;SDS011;58176;51.130;4.434;2023-05-20T06:49:19;5.43;;;4.47;;
70613;SDS011;58176;51.130;4.434;2023-05-20T06:51:44;4.97;;;4.50;;
70613;SDS011;58176;51.130;4.434;2023-05-20T06:54:10;8.27;;;4.35;;
70613;SDS011;58176;51.130;4.434;2023-05-20T06:56:36;4.63;;;3.97;;
70613;SDS011;58176;51.130;4.434;2023-05-20T06:59:01;7.20;;;4.25;;
70613;SDS011;58176;51.130;4.434;2023-05-20T07:01:27;5.03;;;3.95;;
70613;SDS011;58176;51.130;4.434;2023-05-20T07:03:53;5.18;;;4.13;;
70613;SDS011;58176;51.130;4.434;2023-05-20T07:06:18;5.68;;;4.05;;
70613;SDS011;58176;51.130;4.434;2023-05-20T07:08:44;5.95;;;3.70;;
70613;SDS011;58176;51.130;4.434;2023-05-20T07:11:09;6.05;;;3.55;;
70613;SDS011;58176;51.130;4.434;2023-05-20T07:13:35;6.85;;;3.85;;
70613;SDS011;58176;51.130;4.434;2023-05-20T07:16:01;4.32;;;3.92;;
70613;SDS011;58176;51.130;4.434;2023-05-20T07:18:27;7.40;;;3.92;;
70613;SDS011;58176;51.130;4.434;2023-05-20T07:20:53;4.07;;;3.55;;
70613;SDS011;58176;51.130;4.434;2023-05-20T07:23:22;3.85;;;3.35;;
70613;SDS011;58176;51.130;4.434;2023-05-20T07:25:48;3.78;;;3.42;;
70613;SDS011;58176;51.130;4.434;2023-05-20T07:28:16;3.58;;;3.38;;
70613;SDS011;58176;51.130;4.434;2023-05-20T07:30:42;6.13;;;3.78;;
70613;SDS011;58176;51.130;4.434;2023-05-20T07:33:14;3.88;;;3.58;;
70613;SDS011;58176;51.130;4.434;2023-05-20T07:35:42;5.70;;;3.45;;
70613;SDS011;58176;51.130;4.434;2023-05-20T07:38:08;3.67;;;3.47;;
70613;SDS011;58176;51.130;4.434;2023-05-20T07:40:36;6.03;;;3.20;;
70613;SDS011;58176;51.130;4.434;2023-05-20T07:43:02;5.93;;;3.65;;
70613;SDS011;58176;51.130;4.434;2023-05-20T07:45:28;3.92;;;3.63;;
70613;SDS011;58176;51.130;4.434;2023-05-20T07:47:54;3.55;;;3.28;;
70613;SDS011;58176;51.130;4.434;2023-05-20T07:50:19;4.22;;;3.42;;
70613;SDS011;58176;51.130;4.434;2023-05-20T07:52:45;8.82;;;3.63;;
70613;SDS011;58176;51.130;4.434;2023-05-20T07:55:11;3.25;;;3.05;;
70613;SDS011;58176;51.130;4.434;2023-05-20T07:57:36;4.45;;;3.10;;
70613;SDS011;58176;51.130;4.434;2023-05-20T08:00:02;6.90;;;3.38;;
70613;SDS011;58176;51.130;4.434;2023-05-20T08:02:28;3.15;;;2.92;;
70613;SDS011;58176;51.130;4.434;2023-05-20T08:04:54;9.18;;;3.00;;
70613;SDS011;58176;51.130;4.434;2023-05-20T08:07:20;4.30;;;3.33;;
70613;SDS011;58176;51.130;4.434;2023-05-20T08:09:46;5.38;;;3.15;;
70613;SDS011;58176;51.130;4.434;2023-05-20T08:12:11;3.00;;;2.80;;
70613;SDS011;58176;51.130;4.434;2023-05-20T08:14:37;3.58;;;3.00;;
70613;SDS011;58176;51.130;4.434;2023-05-20T08:17:02;3.88;;;3.08;;
70613;SDS011;58176;51.130;4.434;2023-05-20T08:19:28;5.90;;;3.00;;
70613;SDS011;58176;51.130;4.434;2023-05-20T08:21:54;3.50;;;2.90;;
70613;SDS011;58176;51.130;4.434;2023-05-20T08:24:19;5.20;;;3.28;;
70613;SDS011;58176;51.130;4.434;2023-05-20T08:26:45;3.45;;;3.15;;
70613;SDS011;58176;51.130;4.434;2023-05-20T08:29:11;3.53;;;3.20;;
70613;SDS011;58176;51.130;4.434;2023-05-20T08:31:36;3.15;;;2.88;;
70613;SDS011;58176;51.130;4.434;2023-05-20T08:34:02;5.30;;;3.00;;
70613;SDS011;58176;51.130;4.434;2023-05-20T08:36:28;3.30;;;3.10;;
70613;SDS011;58176;51.130;4.434;2023-05-20T08:38:53;3.20;;;3.00;;
70613;SDS011;58176;51.130;4.434;2023-05-20T08:41:20;3.40;;;3.10;;
70613;SDS011;58176;51.130;4.434;2023-05-20T08:43:47;6.32;;;2.80;;
70613;SDS011;58176;51.130;4.434;2023-05-20T08:46:13;5.38;;;2.78;;
70613;SDS011;58176;51.130;4.434;2023-05-20T08:48:40;9.48;;;3.25;;
70613;SDS011;58176;51.130;4.434;2023-05-20T08:51:05;5.65;;;2.97;;
70613;SDS011;58176;51.130;4.434;2023-05-20T08:53:34;3.92;;;3.08;;
70613;SDS011;58176;51.130;4.434;2023-05-20T08:56:00;3.22;;;2.92;;
70613;SDS011;58176;51.130;4.434;2023-05-20T08:58:29;2.75;;;2.55;;
70613;SDS011;58176;51.130;4.434;2023-05-20T09:00:55;4.82;;;2.63;;
70613;SDS011;58176;51.130;4.434;2023-05-20T09:03:22;3.15;;;2.80;;
70613;SDS011;58176;51.130;4.434;2023-05-20T09:05:50;3.20;;;2.97;;
70613;SDS011;58176;51.130;4.434;2023-05-20T09:08:16;3.40;;;2.80;;
70613;SDS011;58176;51.130;4.434;2023-05-20T09:10:42;10.23;;;2.67;;
70613;SDS011;58176;51.130;4.434;2023-05-20T09:13:08;7.82;;;2.85;;
70613;SDS011;58176;51.130;4.434;2023-05-20T09:15:35;2.85;;;2.40;;
70613;SDS011;58176;51.130;4.434;2023-05-20T09:18:05;3.03;;;2.83;;
70613;SDS011;58176;51.130;4.434;2023-05-20T09:20:33;8.73;;;2.65;;
70613;SDS011;58176;51.130;4.434;2023-05-20T09:23:01;3.92;;;2.67;;
70613;SDS011;58176;51.130;4.434;2023-05-20T09:25:31;6.68;;;3.45;;
70613;SDS011;58176;51.130;4.434;2023-05-20T09:27:57;7.90;;;3.22;;
70613;SDS011;58176;51.130;4.434;2023-05-20T09:30:23;4.43;;;2.83;;
70613;SDS011;58176;51.130;4.434;2023-05-20T09:32:55;2.53;;;2.33;;
70613;SDS011;58176;51.130;4.434;2023-05-20T09:35:22;4.13;;;2.80;;
70613;SDS011;58176;51.130;4.434;2023-05-20T09:37:50;2.95;;;2.75;;
70613;SDS011;58176;51.130;4.434;2023-05-20T09:40:18;4.75;;;3.15;;
70613;SDS011;58176;51.130;4.434;2023-05-20T09:43:08;3.78;;;2.83;;
70613;SDS011;58176;51.130;4.434;2023-05-20T09:45:35;3.85;;;3.13;;
70613;SDS011;58176;51.130;4.434;2023-05-20T09:48:02;4.50;;;2.83;;
70613;SDS011;58176;51.130;4.434;2023-05-20T09:50:29;3.90;;;3.05;;
70613;SDS011;58176;51.130;4.434;2023-05-20T09:52:56;3.53;;;2.83;;
70613;SDS011;58176;51.130;4.434;2023-05-20T09:55:26;4.38;;;2.65;;
70613;SDS011;58176;51.130;4.434;2023-05-20T09:57:52;4.55;;;2.88;;
70613;SDS011;58176;51.130;4.434;2023-05-20T10:00:19;2.97;;;2.70;;
70613;SDS011;58176;51.130;4.434;2023-05-20T10:02:54;3.25;;;2.72;;
70613;SDS011;58176;51.130;4.434;2023-05-20T10:05:36;3.00;;;2.80;;
70613;SDS011;58176;51.130;4.434;2023-05-20T10:16:37;5.60;;;2.83;;
70613;SDS011;58176;51.130;4.434;2023-05-20T10:22:05;2.97;;;2.55;;
70613;SDS011;58176;51.130;4.434;2023-05-20T10:24:42;4.93;;;2.85;;
70613;SDS011;58176;51.130;4.434;2023-05-20T10:27:11;2.90;;;2.65;;
70613;SDS011;58176;51.130;4.434;2023-05-20T10:32:07;2.63;;;2.42;;
70613;SDS011;58176;51.130;4.434;2023-05-20T10:34:43;2.95;;;2.58;;
70613;SDS011;58176;51.130;4.434;2023-05-20T10:37:19;3.05;;;2.78;;
70613;SDS011;58176;51.130;4.434;2023-05-20T10:39:50;3.10;;;2.90;;
70613;SDS011;58176;51.130;4.434;2023-05-20T10:42:26;3.22;;;3.03;;
70613;SDS011;58176;51.130;4.434;2023-05-20T10:44:53;3.80;;;2.90;;
70613;SDS011;58176;51.130;4.434;2023-05-20T10:47:18;2.90;;;2.70;;
70613;SDS011;58176;51.130;4.434;2023-05-20T10:49:44;2.58;;;2.45;;
70613;SDS011;58176;51.130;4.434;2023-05-20T10:52:15;2.45;;;2.35;;
70613;SDS011;58176;51.130;4.434;2023-05-20T10:54:57;3.55;;;2.75;;
70613;SDS011;58176;51.130;4.434;2023-05-20T10:57:26;7.57;;;2.80;;
70613;SDS011;58176;51.130;4.434;2023-05-20T11:02:20;2.97;;;2.78;;
70613;SDS011;58176;51.130;4.434;2023-05-20T11:04:52;2.85;;;2.65;;
70613;SDS011;58176;51.130;4.434;2023-05-20T11:07:23;10.32;;;3.17;;
70613;SDS011;58176;51.130;4.434;2023-05-20T11:09:53;3.13;;;2.83;;
70613;SDS011;58176;51.130;4.434;2023-05-20T11:12:20;4.95;;;3.13;;
70613;SDS011;58176;51.130;4.434;2023-05-20T11:14:47;5.35;;;3.08;;
70613;SDS011;58176;51.130;4.434;2023-05-20T11:17:14;3.15;;;2.67;;
70613;SDS011;58176;51.130;4.434;2023-05-20T11:19:40;3.17;;;2.40;;
70613;SDS011;58176;51.130;4.434;2023-05-20T11:22:06;2.80;;;2.60;;
70613;SDS011;58176;51.130;4.434;2023-05-20T11:24:32;6.22;;;3.45;;
70613;SDS011;58176;51.130;4.434;2023-05-20T11:26:58;6.63;;;2.70;;
70613;SDS011;58176;51.130;4.434;2023-05-20T11:29:25;5.20;;;2.80;;
70613;SDS011;58176;51.130;4.434;2023-05-20T11:31:53;2.60;;;2.40;;
70613;SDS011;58176;51.130;4.434;2023-05-20T11:34:22;4.93;;;2.60;;
70613;SDS011;58176;51.130;4.434;2023-05-20T11:36:54;3.65;;;2.58;;
70613;SDS011;58176;51.130;4.434;2023-05-20T11:39:21;3.08;;;2.80;;
70613;SDS011;58176;51.130;4.434;2023-05-20T11:41:46;8.25;;;2.70;;
70613;SDS011;58176;51.130;4.434;2023-05-20T11:44:12;3.90;;;2.60;;
70613;SDS011;58176;51.130;4.434;2023-05-20T11:46:41;2.80;;;2.60;;
70613;SDS011;58176;51.130;4.434;2023-05-20T11:49:08;2.67;;;2.47;;
70613;SDS011;58176;51.130;4.434;2023-05-20T11:51:34;3.38;;;2.13;;
70613;SDS011;58176;51.130;4.434;2023-05-20T11:54:01;3.67;;;2.63;;
70613;SDS011;58176;51.130;4.434;2023-05-20T11:56:28;2.50;;;2.33;;
70613;SDS011;58176;51.130;4.434;2023-05-20T11:58:58;2.78;;;2.65;;
70613;SDS011;58176;51.130;4.434;2023-05-20T12:01:25;2.40;;;2.30;;
70613;SDS011;58176;51.130;4.434;2023-05-20T12:03:52;4.53;;;2.60;;
70613;SDS011;58176;51.130;4.434;2023-05-20T12:06:18;7.50;;;2.78;;
70613;SDS011;58176;51.130;4.434;2023-05-20T12:08:43;6.43;;;3.33;;
70613;SDS011;58176;51.130;4.434;2023-05-20T12:11:10;4.25;;;2.60;;
70613;SDS011;58176;51.130;4.434;2023-05-20T12:13:36;2.70;;;2.55;;
70613;SDS011;58176;51.130;4.434;2023-05-20T12:16:02;6.53;;;2.88;;
70613;SDS011;58176;51.130;4.434;2023-05-20T12:18:30;4.47;;;2.63;;
70613;SDS011;58176;51.130;4.434;2023-05-20T12:20:57;8.13;;;3.85;;
70613;SDS011;58176;51.130;4.434;2023-05-20T12:23:23;3.35;;;2.83;;
70613;SDS011;58176;51.130;4.434;2023-05-20T12:25:49;4.78;;;2.58;;
70613;SDS011;58176;51.130;4.434;2023-05-20T12:28:16;4.78;;;2.85;;
70613;SDS011;58176;51.130;4.434;2023-05-20T12:30:42;2.70;;;2.50;;
70613;SDS011;58176;51.130;4.434;2023-05-20T12:33:08;2.60;;;2.40;;
70613;SDS011;58176;51.130;4.434;2023-05-20T12:35:40;3.05;;;2.25;;
70613;SDS011;58176;51.130;4.434;2023-05-20T12:38:07;4.55;;;2.70;;
70613;SDS011;58176;51.130;4.434;2023-05-20T12:40:33;7.90;;;2.90;;
70613;SDS011;58176;51.130;4.434;2023-05-20T12:43:00;3.15;;;2.80;;
70613;SDS011;58176;51.130;4.434;2023-05-20T12:45:27;3.13;;;2.88;;
70613;SDS011;58176;51.130;4.434;2023-05-20T12:47:53;3.67;;;2.70;;
70613;SDS011;58176;51.130;4.434;2023-05-20T12:50:19;5.38;;;2.70;;
70613;SDS011;58176;51.130;4.434;2023-05-20T12:52:45;3.20;;;2.92;;
70613;SDS011;58176;51.130;4.434;2023-05-20T12:55:11;4.70;;;2.90;;
70613;SDS011;58176;51.130;4.434;2023-05-20T12:57:40;3.10;;;2.90;;
70613;SDS011;58176;51.130;4.434;2023-05-20T13:00:07;5.65;;;3.35;;
70613;SDS011;58176;51.130;4.434;2023-05-20T13:02:34;3.00;;;2.70;;
70613;SDS011;58176;51.130;4.434;2023-05-20T13:05:00;3.67;;;2.97;;
70613;SDS011;58176;51.130;4.434;2023-05-20T13:07:26;3.53;;;2.92;;
70613;SDS011;58176;51.130;4.434;2023-05-20T13:09:52;5.05;;;2.67;;
70613;SDS011;58176;51.130;4.434;2023-05-20T13:12:17;3.90;;;2.65;;
70613;SDS011;58176;51.130;4.434;2023-05-20T13:14:43;3.50;;;2.60;;
70613;SDS011;58176;51.130;4.434;2023-05-20T13:17:10;7.18;;;2.78;;
70613;SDS011;58176;51.130;4.434;2023-05-20T13:19:35;8.50;;;7.70;;
70613;SDS011;58176;51.130;4.434;2023-05-20T13:22:02;3.67;;;2.58;;
70613;SDS011;58176;51.130;4.434;2023-05-20T13:24:30;3.42;;;2.40;;
70613;SDS011;58176;51.130;4.434;2023-05-20T13:26:55;2.72;;;2.50;;
70613;SDS011;58176;51.130;4.434;2023-05-20T13:29:21;2.90;;;2.70;;
70613;SDS011;58176;51.130;4.434;2023-05-20T13:31:46;2.60;;;2.40;;
70613;SDS011;58176;51.130;4.434;2023-05-20T13:34:12;2.92;;;2.60;;
70613;SDS011;58176;51.130;4.434;2023-05-20T13:36:38;2.75;;;2.42;;
70613;SDS011;58176;51.130;4.434;2023-05-20T13:39:04;2.65;;;2.42;;
70613;SDS011;58176;51.130;4.434;2023-05-20T13:41:30;4.68;;;2.83;;
70613;SDS011;58176;51.130;4.434;2023-05-20T13:43:56;6.82;;;2.17;;
70613;SDS011;58176;51.130;4.434;2023-05-20T13:46:22;2.63;;;2.00;;
70613;SDS011;58176;51.130;4.434;2023-05-20T13:48:48;7.82;;;2.45;;
70613;SDS011;58176;51.130;4.434;2023-05-20T13:51:14;3.15;;;2.85;;
70613;SDS011;58176;51.130;4.434;2023-05-20T13:53:39;3.80;;;3.60;;
70613;SDS011;58176;51.130;4.434;2023-05-20T13:56:05;2.80;;;2.63;;
70613;SDS011;58176;51.130;4.434;2023-05-20T13:58:33;4.57;;;2.65;;
70613;SDS011;58176;51.130;4.434;2023-05-20T14:01:01;3.03;;;2.80;;
70613;SDS011;58176;51.130;4.434;2023-05-20T14:03:28;3.67;;;2.67;;
70613;SDS011;58176;51.130;4.434;2023-05-20T14:05:57;3.90;;;3.30;;
70613;SDS011;58176;51.130;4.434;2023-05-20T14:08:23;2.50;;;2.30;;
70613;SDS011;58176;51.130;4.434;2023-05-20T14:10:49;4.65;;;2.35;;
70613;SDS011;58176;51.130;4.434;2023-05-20T14:13:19;2.58;;;2.40;;
70613;SDS011;58176;51.130;4.434;2023-05-20T14:15:45;4.28;;;2.42;;
70613;SDS011;58176;51.130;4.434;2023-05-20T14:18:11;2.50;;;2.40;;
70613;SDS011;58176;51.130;4.434;2023-05-20T14:20:36;3.40;;;2.60;;
70613;SDS011;58176;51.130;4.434;2023-05-20T14:23:02;3.13;;;2.80;;
70613;SDS011;58176;51.130;4.434;2023-05-20T14:25:27;4.05;;;2.42;;
70613;SDS011;58176;51.130;4.434;2023-05-20T14:27:53;2.95;;;2.60;;
70613;SDS011;58176;51.130;4.434;2023-05-20T14:30:19;4.72;;;2.47;;
70613;SDS011;58176;51.130;4.434;2023-05-20T14:32:45;5.28;;;2.58;;
70613;SDS011;58176;51.130;4.434;2023-05-20T14:35:10;2.53;;;2.33;;
70613;SDS011;58176;51.130;4.434;2023-05-20T14:37:36;3.88;;;2.70;;
70613;SDS011;58176;51.130;4.434;2023-05-20T14:40:03;3.40;;;2.90;;
70613;SDS011;58176;51.130;4.434;2023-05-20T14:42:29;2.55;;;2.35;;
70613;SDS011;58176;51.130;4.434;2023-05-20T14:44:55;3.28;;;2.40;;
70613;SDS011;58176;51.130;4.434;2023-05-20T14:47:21;2.50;;;2.30;;
70613;SDS011;58176;51.130;4.434;2023-05-20T14:49:46;3.78;;;2.30;;
70613;SDS011;58176;51.130;4.434;2023-05-20T14:52:14;4.55;;;2.55;;
70613;SDS011;58176;51.130;4.434;2023-05-20T14:54:41;3.05;;;2.10;;
70613;SDS011;58176;51.130;4.434;2023-05-20T14:57:06;5.85;;;2.50;;
70613;SDS011;58176;51.130;4.434;2023-05-20T14:59:32;2.50;;;2.30;;
70613;SDS011;58176;51.130;4.434;2023-05-20T15:01:58;2.88;;;2.38;;
70613;SDS011;58176;51.130;4.434;2023-05-20T15:04:24;2.22;;;2.13;;